sensor_id;sensor_type;location;lat;lon;timestamp;temperature;humidity
75819;DHT22;64453;51.944;9.796;2023-03-01T00:00:05;4.00;42.30
75819;DHT22;64453;51.944;9.796;2023-03-01T00:02:33;3.90;42.50
75819;DHT22;64453;51.944;9.796;2023-03-01T00:05:00;3.70;42.80
75819;DHT22;64453;51.944;9.796;2023-03-01T00:07:28;3.80;42.90
75819;DHT22;64453;51.944;9.796;2023-03-01T00:09:55;3.90;42.10
75819;DHT22;64453;51.944;9.796;2023-03-01T00:12:22;3.90;41.80
75819;DHT22;64453;51.944;9.796;2023-03-01T00:14:49;4.00;42.70
75819;DHT22;64453;51.944;9.796;2023-03-01T00:17:16;4.00;42.30
75819;DHT22;64453;51.944;9.796;2023-03-01T00:19:43;3.70;42.60
75819;DHT22;64453;51.944;9.796;2023-03-01T00:22:10;3.50;42.70
75819;DHT22;64453;51.944;9.796;2023-03-01T00:24:38;3.90;42.30
75819;DHT22;64453;51.944;9.796;2023-03-01T00:27:04;4.10;41.60
75819;DHT22;64453;51.944;9.796;2023-03-01T00:29:31;4.20;41.70
75819;DHT22;64453;51.944;9.796;2023-03-01T00:31:58;3.80;42.00
75819;DHT22;64453;51.944;9.796;2023-03-01T00:34:25;4.00;42.20
75819;DHT22;64453;51.944;9.796;2023-03-01T00:36:52;3.60;42.10
75819;DHT22;64453;51.944;9.796;2023-03-01T00:39:19;3.60;42.80
75819;DHT22;64453;51.944;9.796;2023-03-01T00:41:47;3.30;42.70
75819;DHT22;64453;51.944;9.796;2023-03-01T00:44:14;4.00;42.20
75819;DHT22;64453;51.944;9.796;2023-03-01T00:46:41;4.10;41.80
75819;DHT22;64453;51.944;9.796;2023-03-01T00:49:08;4.00;41.90
75819;DHT22;64453;51.944;9.796;2023-03-01T00:51:35;3.40;41.40
75819;DHT22;64453;51.944;9.796;2023-03-01T00:54:02;3.80;42.10
75819;DHT22;64453;51.944;9.796;2023-03-01T00:56:30;3.40;42.40
75819;DHT22;64453;51.944;9.796;2023-03-01T00:58:58;3.40;42.90
75819;DHT22;64453;51.944;9.796;2023-03-01T01:01:27;3.70;42.40
75819;DHT22;64453;51.944;9.796;2023-03-01T01:03:57;3.90;41.90
75819;DHT22;64453;51.944;9.796;2023-03-01T01:06:26;4.00;41.20
75819;DHT22;64453;51.944;9.796;2023-03-01T01:08:55;3.80;41.20
75819;DHT22;64453;51.944;9.796;2023-03-01T01:11:27;3.60;41.60
75819;DHT22;64453;51.944;9.796;2023-03-01T01:13:55;3.60;42.00
75819;DHT22;64453;51.944;9.796;2023-03-01T01:16:25;3.70;42.00
75819;DHT22;64453;51.944;9.796;2023-03-01T01:18:53;3.90;41.50
75819;DHT22;64453;51.944;9.796;2023-03-01T01:21:22;3.40;41.30
75819;DHT22;64453;51.944;9.796;2023-03-01T01:23:50;3.50;42.20
75819;DHT22;64453;51.944;9.796;2023-03-01T01:26:20;3.30;42.60
75819;DHT22;64453;51.944;9.796;2023-03-01T01:28:49;2.80;42.40
75819;DHT22;64453;51.944;9.796;2023-03-01T01:31:18;3.40;42.90
75819;DHT22;64453;51.944;9.796;2023-03-01T01:33:46;3.30;41.90
75819;DHT22;64453;51.944;9.796;2023-03-01T01:36:13;3.50;42.30
75819;DHT22;64453;51.944;9.796;2023-03-01T01:38:40;3.70;41.80
75819;DHT22;64453;51.944;9.796;2023-03-01T01:41:09;3.50;42.00
75819;DHT22;64453;51.944;9.796;2023-03-01T01:43:40;2.70;42.30
75819;DHT22;64453;51.944;9.796;2023-03-01T01:46:16;3.30;42.10
75819;DHT22;64453;51.944;9.796;2023-03-01T01:48:55;2.80;43.00
75819;DHT22;64453;51.944;9.796;2023-03-01T01:51:27;3.20;42.60
75819;DHT22;64453;51.944;9.796;2023-03-01T01:53:58;3.00;42.30
75819;DHT22;64453;51.944;9.796;2023-03-01T01:56:26;3.10;42.60
75819;DHT22;64453;51.944;9.796;2023-03-01T01:58:55;3.20;42.60
75819;DHT22;64453;51.944;9.796;2023-03-01T02:01:23;3.00;42.80
75819;DHT22;64453;51.944;9.796;2023-03-01T02:03:51;2.80;42.70
75819;DHT22;64453;51.944;9.796;2023-03-01T02:06:24;2.60;42.80
75819;DHT22;64453;51.944;9.796;2023-03-01T02:08:55;2.70;42.70
75819;DHT22;64453;51.944;9.796;2023-03-01T02:11:24;2.40;43.90
75819;DHT22;64453;51.944;9.796;2023-03-01T02:13:53;2.50;44.20
75819;DHT22;64453;51.944;9.796;2023-03-01T02:16:20;2.90;42.90
75819;DHT22;64453;51.944;9.796;2023-03-01T02:18:49;2.60;42.70
75819;DHT22;64453;51.944;9.796;2023-03-01T02:21:32;2.30;43.20
75819;DHT22;64453;51.944;9.796;2023-03-01T02:24:11;2.50;43.70
75819;DHT22;64453;51.944;9.796;2023-03-01T02:26:47;2.90;43.00
75819;DHT22;64453;51.944;9.796;2023-03-01T02:29:17;3.10;42.10
75819;DHT22;64453;51.944;9.796;2023-03-01T02:31:44;3.30;41.70
75819;DHT22;64453;51.944;9.796;2023-03-01T02:34:13;3.40;41.70
75819;DHT22;64453;51.944;9.796;2023-03-01T02:36:44;3.60;41.40
75819;DHT22;64453;51.944;9.796;2023-03-01T02:39:15;3.50;41.00
75819;DHT22;64453;51.944;9.796;2023-03-01T02:41:47;3.20;41.20
75819;DHT22;64453;51.944;9.796;2023-03-01T02:44:18;3.40;41.50
75819;DHT22;64453;51.944;9.796;2023-03-01T02:46:47;3.30;40.90
75819;DHT22;64453;51.944;9.796;2023-03-01T02:49:20;2.70;41.20
75819;DHT22;64453;51.944;9.796;2023-03-01T02:54:56;3.30;41.60
75819;DHT22;64453;51.944;9.796;2023-03-01T02:57:27;3.40;41.40
75819;DHT22;64453;51.944;9.796;2023-03-01T02:59:58;3.40;41.30
75819;DHT22;64453;51.944;9.796;2023-03-01T03:02:29;3.20;41.00
75819;DHT22;64453;51.944;9.796;2023-03-01T03:05:05;2.70;41.90
75819;DHT22;64453;51.944;9.796;2023-03-01T03:07:35;3.10;41.90
75819;DHT22;64453;51.944;9.796;2023-03-01T03:10:04;3.20;41.60
75819;DHT22;64453;51.944;9.796;2023-03-01T03:12:33;3.30;41.30
75819;DHT22;64453;51.944;9.796;2023-03-01T03:15:01;3.10;41.70
75819;DHT22;64453;51.944;9.796;2023-03-01T03:17:34;3.10;41.50
75819;DHT22;64453;51.944;9.796;2023-03-01T03:20:01;3.30;41.60
75819;DHT22;64453;51.944;9.796;2023-03-01T03:22:29;3.40;41.40
75819;DHT22;64453;51.944;9.796;2023-03-01T03:24:56;3.10;40.80
75819;DHT22;64453;51.944;9.796;2023-03-01T03:27:22;3.60;40.90
75819;DHT22;64453;51.944;9.796;2023-03-01T03:29:49;3.60;40.90
75819;DHT22;64453;51.944;9.796;2023-03-01T03:32:17;3.30;40.50
75819;DHT22;64453;51.944;9.796;2023-03-01T03:34:44;2.60;41.00
75819;DHT22;64453;51.944;9.796;2023-03-01T03:37:11;3.00;41.10
75819;DHT22;64453;51.944;9.796;2023-03-01T03:39:52;3.10;40.80
75819;DHT22;64453;51.944;9.796;2023-03-01T03:42:20;2.80;41.20
75819;DHT22;64453;51.944;9.796;2023-03-01T03:44:47;3.20;41.10
75819;DHT22;64453;51.944;9.796;2023-03-01T03:47:14;3.00;40.70
75819;DHT22;64453;51.944;9.796;2023-03-01T03:49:42;3.00;41.00
75819;DHT22;64453;51.944;9.796;2023-03-01T03:52:09;3.10;41.20
75819;DHT22;64453;51.944;9.796;2023-03-01T03:54:39;3.10;41.40
75819;DHT22;64453;51.944;9.796;2023-03-01T03:57:06;3.20;41.20
75819;DHT22;64453;51.944;9.796;2023-03-01T03:59:33;3.30;40.80
75819;DHT22;64453;51.944;9.796;2023-03-01T04:02:00;2.90;40.80
75819;DHT22;64453;51.944;9.796;2023-03-01T04:04:26;3.20;41.10
75819;DHT22;64453;51.944;9.796;2023-03-01T04:06:54;3.20;40.60
75819;DHT22;64453;51.944;9.796;2023-03-01T04:09:21;3.30;40.50
75819;DHT22;64453;51.944;9.796;2023-03-01T04:11:48;3.00;40.50
75819;DHT22;64453;51.944;9.796;2023-03-01T04:14:15;2.80;40.60
75819;DHT22;64453;51.944;9.796;2023-03-01T04:16:42;2.40;41.60
75819;DHT22;64453;51.944;9.796;2023-03-01T04:19:08;2.70;41.90
75819;DHT22;64453;51.944;9.796;2023-03-01T04:21:35;2.30;41.00
75819;DHT22;64453;51.944;9.796;2023-03-01T04:24:04;2.80;41.40
75819;DHT22;64453;51.944;9.796;2023-03-01T04:26:32;2.60;41.00
75819;DHT22;64453;51.944;9.796;2023-03-01T04:29:00;2.10;42.30
75819;DHT22;64453;51.944;9.796;2023-03-01T04:31:27;2.30;42.70
75819;DHT22;64453;51.944;9.796;2023-03-01T04:33:55;2.70;41.60
75819;DHT22;64453;51.944;9.796;2023-03-01T04:36:24;2.20;42.20
75819;DHT22;64453;51.944;9.796;2023-03-01T04:38:51;2.20;42.40
75819;DHT22;64453;51.944;9.796;2023-03-01T04:41:20;2.50;42.30
75819;DHT22;64453;51.944;9.796;2023-03-01T04:43:49;2.70;41.70
75819;DHT22;64453;51.944;9.796;2023-03-01T04:46:17;2.60;41.20
75819;DHT22;64453;51.944;9.796;2023-03-01T04:48:46;2.30;41.00
75819;DHT22;64453;51.944;9.796;2023-03-01T04:51:13;2.50;41.60
75819;DHT22;64453;51.944;9.796;2023-03-01T04:53:42;2.50;41.80
75819;DHT22;64453;51.944;9.796;2023-03-01T04:56:09;2.60;41.60
75819;DHT22;64453;51.944;9.796;2023-03-01T04:58:37;2.70;41.70
75819;DHT22;64453;51.944;9.796;2023-03-01T05:01:09;2.80;41.50
75819;DHT22;64453;51.944;9.796;2023-03-01T05:03:41;2.70;40.70
75819;DHT22;64453;51.944;9.796;2023-03-01T05:06:09;2.60;41.60
75819;DHT22;64453;51.944;9.796;2023-03-01T05:08:36;2.10;41.10
75819;DHT22;64453;51.944;9.796;2023-03-01T05:11:03;2.60;41.00
75819;DHT22;64453;51.944;9.796;2023-03-01T05:13:34;2.70;40.60
75819;DHT22;64453;51.944;9.796;2023-03-01T05:16:05;2.70;41.10
75819;DHT22;64453;51.944;9.796;2023-03-01T05:18:36;2.80;40.70
75819;DHT22;64453;51.944;9.796;2023-03-01T05:21:05;2.70;40.90
75819;DHT22;64453;51.944;9.796;2023-03-01T05:23:33;2.70;41.00
75819;DHT22;64453;51.944;9.796;2023-03-01T05:26:02;2.70;40.80
75819;DHT22;64453;51.944;9.796;2023-03-01T05:28:31;2.50;40.60
75819;DHT22;64453;51.944;9.796;2023-03-01T05:31:00;2.60;40.70
75819;DHT22;64453;51.944;9.796;2023-03-01T05:33:27;2.50;40.70
75819;DHT22;64453;51.944;9.796;2023-03-01T05:35:54;2.50;41.00
75819;DHT22;64453;51.944;9.796;2023-03-01T05:38:25;2.40;40.70
75819;DHT22;64453;51.944;9.796;2023-03-01T05:40:52;1.50;41.30
75819;DHT22;64453;51.944;9.796;2023-03-01T05:43:19;1.90;42.40
75819;DHT22;64453;51.944;9.796;2023-03-01T05:45:46;1.80;42.60
75819;DHT22;64453;51.944;9.796;2023-03-01T05:48:14;2.10;42.20
75819;DHT22;64453;51.944;9.796;2023-03-01T05:50:42;2.30;41.70
75819;DHT22;64453;51.944;9.796;2023-03-01T05:53:11;2.50;41.50
75819;DHT22;64453;51.944;9.796;2023-03-01T05:55:39;2.50;41.00
75819;DHT22;64453;51.944;9.796;2023-03-01T05:58:08;2.50;40.70
75819;DHT22;64453;51.944;9.796;2023-03-01T06:00:37;2.20;40.70
75819;DHT22;64453;51.944;9.796;2023-03-01T06:03:04;1.50;42.00
75819;DHT22;64453;51.944;9.796;2023-03-01T06:05:33;1.70;42.10
75819;DHT22;64453;51.944;9.796;2023-03-01T06:07:59;1.90;42.20
75819;DHT22;64453;51.944;9.796;2023-03-01T06:10:27;2.20;42.60
75819;DHT22;64453;51.944;9.796;2023-03-01T06:12:54;2.30;41.30
75819;DHT22;64453;51.944;9.796;2023-03-01T06:15:22;2.30;40.80
75819;DHT22;64453;51.944;9.796;2023-03-01T06:17:49;1.70;41.50
75819;DHT22;64453;51.944;9.796;2023-03-01T06:20:19;1.90;42.10
75819;DHT22;64453;51.944;9.796;2023-03-01T06:22:49;2.10;41.50
75819;DHT22;64453;51.944;9.796;2023-03-01T06:25:18;2.40;41.20
75819;DHT22;64453;51.944;9.796;2023-03-01T06:27:46;2.50;41.30
75819;DHT22;64453;51.944;9.796;2023-03-01T06:30:15;2.60;41.10
75819;DHT22;64453;51.944;9.796;2023-03-01T06:32:44;2.60;40.80
75819;DHT22;64453;51.944;9.796;2023-03-01T06:35:13;2.40;40.50
75819;DHT22;64453;51.944;9.796;2023-03-01T06:37:43;2.40;40.80
75819;DHT22;64453;51.944;9.796;2023-03-01T06:40:12;1.90;40.70
75819;DHT22;64453;51.944;9.796;2023-03-01T06:42:42;1.80;41.80
75819;DHT22;64453;51.944;9.796;2023-03-01T06:45:10;1.10;43.90
75819;DHT22;64453;51.944;9.796;2023-03-01T06:47:37;1.20;44.60
75819;DHT22;64453;51.944;9.796;2023-03-01T06:50:05;1.70;43.80
75819;DHT22;64453;51.944;9.796;2023-03-01T06:52:32;2.00;42.90
75819;DHT22;64453;51.944;9.796;2023-03-01T06:54:59;2.10;43.20
75819;DHT22;64453;51.944;9.796;2023-03-01T06:57:27;2.30;42.90
75819;DHT22;64453;51.944;9.796;2023-03-01T06:59:55;2.30;42.20
75819;DHT22;64453;51.944;9.796;2023-03-01T07:02:22;2.50;42.40
75819;DHT22;64453;51.944;9.796;2023-03-01T07:04:49;2.70;42.30
75819;DHT22;64453;51.944;9.796;2023-03-01T07:07:17;2.80;42.30
75819;DHT22;64453;51.944;9.796;2023-03-01T07:09:44;2.70;42.60
75819;DHT22;64453;51.944;9.796;2023-03-01T07:12:11;2.40;42.60
75819;DHT22;64453;51.944;9.796;2023-03-01T07:14:39;2.40;43.50
75819;DHT22;64453;51.944;9.796;2023-03-01T07:17:07;2.40;44.00
75819;DHT22;64453;51.944;9.796;2023-03-01T07:19:33;2.40;44.30
75819;DHT22;64453;51.944;9.796;2023-03-01T07:22:00;2.30;44.50
75819;DHT22;64453;51.944;9.796;2023-03-01T07:24:27;2.60;44.90
75819;DHT22;64453;51.944;9.796;2023-03-01T07:26:54;2.80;44.40
75819;DHT22;64453;51.944;9.796;2023-03-01T07:29:21;3.00;43.90
75819;DHT22;64453;51.944;9.796;2023-03-01T07:31:49;2.90;43.40
75819;DHT22;64453;51.944;9.796;2023-03-01T07:34:16;3.20;43.50
75819;DHT22;64453;51.944;9.796;2023-03-01T07:36:43;3.30;43.60
75819;DHT22;64453;51.944;9.796;2023-03-01T07:39:11;3.40;43.60
75819;DHT22;64453;51.944;9.796;2023-03-01T07:41:38;3.40;43.60
75819;DHT22;64453;51.944;9.796;2023-03-01T07:44:05;3.50;43.60
75819;DHT22;64453;51.944;9.796;2023-03-01T07:46:32;3.00;43.20
75819;DHT22;64453;51.944;9.796;2023-03-01T07:49:00;3.30;43.30
75819;DHT22;64453;51.944;9.796;2023-03-01T07:51:27;3.20;44.20
75819;DHT22;64453;51.944;9.796;2023-03-01T07:53:54;3.40;44.30
75819;DHT22;64453;51.944;9.796;2023-03-01T07:56:20;3.20;44.10
75819;DHT22;64453;51.944;9.796;2023-03-01T07:58:47;3.60;44.20
75819;DHT22;64453;51.944;9.796;2023-03-01T08:01:16;3.60;44.60
75819;DHT22;64453;51.944;9.796;2023-03-01T08:03:45;3.60;44.60
75819;DHT22;64453;51.944;9.796;2023-03-01T08:06:15;3.70;44.50
75819;DHT22;64453;51.944;9.796;2023-03-01T08:08:43;3.70;44.40
75819;DHT22;64453;51.944;9.796;2023-03-01T08:11:12;3.90;44.40
75819;DHT22;64453;51.944;9.796;2023-03-01T08:13:39;4.00;44.40
75819;DHT22;64453;51.944;9.796;2023-03-01T08:16:10;4.10;44.60
75819;DHT22;64453;51.944;9.796;2023-03-01T08:18:37;4.10;44.60
75819;DHT22;64453;51.944;9.796;2023-03-01T08:21:05;4.00;44.40
75819;DHT22;64453;51.944;9.796;2023-03-01T08:23:34;3.90;44.90
75819;DHT22;64453;51.944;9.796;2023-03-01T08:26:08;3.90;45.30
75819;DHT22;64453;51.944;9.796;2023-03-01T08:28:38;3.90;45.60
75819;DHT22;64453;51.944;9.796;2023-03-01T08:31:13;4.00;45.90
75819;DHT22;64453;51.944;9.796;2023-03-01T08:33:41;3.90;46.60
75819;DHT22;64453;51.944;9.796;2023-03-01T08:36:08;3.70;47.00
75819;DHT22;64453;51.944;9.796;2023-03-01T08:38:36;3.70;46.90
75819;DHT22;64453;51.944;9.796;2023-03-01T08:41:03;3.80;47.30
75819;DHT22;64453;51.944;9.796;2023-03-01T08:43:31;3.90;47.50
75819;DHT22;64453;51.944;9.796;2023-03-01T08:45:57;4.00;47.00
75819;DHT22;64453;51.944;9.796;2023-03-01T08:48:25;3.80;46.80
75819;DHT22;64453;51.944;9.796;2023-03-01T08:50:51;3.50;47.40
75819;DHT22;64453;51.944;9.796;2023-03-01T08:53:18;3.80;48.10
75819;DHT22;64453;51.944;9.796;2023-03-01T08:55:46;4.10;48.40
75819;DHT22;64453;51.944;9.796;2023-03-01T08:58:13;4.00;48.30
75819;DHT22;64453;51.944;9.796;2023-03-01T09:00:40;4.30;48.50
75819;DHT22;64453;51.944;9.796;2023-03-01T09:03:07;4.40;48.20
75819;DHT22;64453;51.944;9.796;2023-03-01T09:05:34;4.00;45.90
75819;DHT22;64453;51.944;9.796;2023-03-01T09:08:02;4.20;45.90
75819;DHT22;64453;51.944;9.796;2023-03-01T09:10:29;4.30;45.30
75819;DHT22;64453;51.944;9.796;2023-03-01T09:12:57;4.50;44.80
75819;DHT22;64453;51.944;9.796;2023-03-01T09:15:24;4.50;45.50
75819;DHT22;64453;51.944;9.796;2023-03-01T09:17:51;4.50;44.60
75819;DHT22;64453;51.944;9.796;2023-03-01T09:20:17;4.80;44.80
75819;DHT22;64453;51.944;9.796;2023-03-01T09:22:44;4.60;45.20
75819;DHT22;64453;51.944;9.796;2023-03-01T09:25:11;4.50;45.60
75819;DHT22;64453;51.944;9.796;2023-03-01T09:27:38;4.50;45.40
75819;DHT22;64453;51.944;9.796;2023-03-01T09:30:07;4.70;45.10
75819;DHT22;64453;51.944;9.796;2023-03-01T09:32:35;4.90;45.00
75819;DHT22;64453;51.944;9.796;2023-03-01T09:35:02;5.20;45.60
75819;DHT22;64453;51.944;9.796;2023-03-01T09:37:34;4.80;45.50
75819;DHT22;64453;51.944;9.796;2023-03-01T09:40:03;5.00;45.70
75819;DHT22;64453;51.944;9.796;2023-03-01T09:42:33;5.30;46.90
75819;DHT22;64453;51.944;9.796;2023-03-01T09:45:03;5.40;46.20
75819;DHT22;64453;51.944;9.796;2023-03-01T09:47:34;5.30;44.70
75819;DHT22;64453;51.944;9.796;2023-03-01T09:50:05;5.40;45.80
75819;DHT22;64453;51.944;9.796;2023-03-01T09:52:39;5.40;43.90
75819;DHT22;64453;51.944;9.796;2023-03-01T09:55:11;5.40;43.90
75819;DHT22;64453;51.944;9.796;2023-03-01T09:57:45;5.50;42.80
75819;DHT22;64453;51.944;9.796;2023-03-01T10:00:38;5.60;43.50
75819;DHT22;64453;51.944;9.796;2023-03-01T10:03:14;5.60;43.70
75819;DHT22;64453;51.944;9.796;2023-03-01T10:05:52;5.70;42.10
75819;DHT22;64453;51.944;9.796;2023-03-01T10:08:27;5.80;43.20
75819;DHT22;64453;51.944;9.796;2023-03-01T10:10:58;5.70;42.00
75819;DHT22;64453;51.944;9.796;2023-03-01T10:13:29;5.80;42.50
75819;DHT22;64453;51.944;9.796;2023-03-01T10:16:09;5.80;42.50
75819;DHT22;64453;51.944;9.796;2023-03-01T10:18:40;6.00;41.20
75819;DHT22;64453;51.944;9.796;2023-03-01T10:21:14;6.10;41.00
75819;DHT22;64453;51.944;9.796;2023-03-01T10:23:42;6.10;41.30
75819;DHT22;64453;51.944;9.796;2023-03-01T10:26:33;6.20;41.50
75819;DHT22;64453;51.944;9.796;2023-03-01T10:29:08;6.10;41.90
75819;DHT22;64453;51.944;9.796;2023-03-01T10:31:40;6.20;40.50
75819;DHT22;64453;51.944;9.796;2023-03-01T10:34:15;6.30;40.70
75819;DHT22;64453;51.944;9.796;2023-03-01T10:36:44;6.40;41.60
75819;DHT22;64453;51.944;9.796;2023-03-01T10:39:18;6.10;40.80
75819;DHT22;64453;51.944;9.796;2023-03-01T10:41:58;6.30;41.10
75819;DHT22;64453;51.944;9.796;2023-03-01T10:44:42;6.40;39.50
75819;DHT22;64453;51.944;9.796;2023-03-01T10:47:16;6.40;39.60
75819;DHT22;64453;51.944;9.796;2023-03-01T10:49:54;6.40;39.60
75819;DHT22;64453;51.944;9.796;2023-03-01T10:52:28;6.50;39.90
75819;DHT22;64453;51.944;9.796;2023-03-01T10:55:02;6.30;39.20
75819;DHT22;64453;51.944;9.796;2023-03-01T10:57:36;5.90;38.80
75819;DHT22;64453;51.944;9.796;2023-03-01T11:00:24;5.90;39.30
75819;DHT22;64453;51.944;9.796;2023-03-01T11:03:12;6.40;39.80
75819;DHT22;64453;51.944;9.796;2023-03-01T11:05:58;6.40;39.20
75819;DHT22;64453;51.944;9.796;2023-03-01T11:08:33;6.60;38.80
75819;DHT22;64453;51.944;9.796;2023-03-01T11:11:23;6.70;39.60
75819;DHT22;64453;51.944;9.796;2023-03-01T11:13:55;6.80;39.60
75819;DHT22;64453;51.944;9.796;2023-03-01T11:16:29;6.70;39.00
75819;DHT22;64453;51.944;9.796;2023-03-01T11:19:13;6.40;39.20
75819;DHT22;64453;51.944;9.796;2023-03-01T11:21:47;6.70;39.20
75819;DHT22;64453;51.944;9.796;2023-03-01T11:24:19;6.50;40.10
75819;DHT22;64453;51.944;9.796;2023-03-01T11:26:54;6.90;40.00
75819;DHT22;64453;51.944;9.796;2023-03-01T11:29:27;6.90;39.40
75819;DHT22;64453;51.944;9.796;2023-03-01T11:32:02;6.90;39.90
75819;DHT22;64453;51.944;9.796;2023-03-01T11:34:40;7.10;39.80
75819;DHT22;64453;51.944;9.796;2023-03-01T11:37:16;7.10;39.60
75819;DHT22;64453;51.944;9.796;2023-03-01T11:39:55;6.80;39.00
75819;DHT22;64453;51.944;9.796;2023-03-01T11:42:35;6.80;39.00
75819;DHT22;64453;51.944;9.796;2023-03-01T11:45:11;6.90;39.00
75819;DHT22;64453;51.944;9.796;2023-03-01T11:47:55;6.80;39.40
75819;DHT22;64453;51.944;9.796;2023-03-01T11:50:35;7.00;38.40
75819;DHT22;64453;51.944;9.796;2023-03-01T11:53:21;6.90;38.10
75819;DHT22;64453;51.944;9.796;2023-03-01T11:56:08;7.10;38.80
75819;DHT22;64453;51.944;9.796;2023-03-01T11:58:50;7.20;39.10
75819;DHT22;64453;51.944;9.796;2023-03-01T12:01:32;7.10;37.60
75819;DHT22;64453;51.944;9.796;2023-03-01T12:07:24;7.20;38.20
75819;DHT22;64453;51.944;9.796;2023-03-01T12:10:17;7.40;38.90
75819;DHT22;64453;51.944;9.796;2023-03-01T12:13:06;7.20;38.50
75819;DHT22;64453;51.944;9.796;2023-03-01T12:16:06;7.40;37.80
75819;DHT22;64453;51.944;9.796;2023-03-01T12:19:05;7.20;37.10
75819;DHT22;64453;51.944;9.796;2023-03-01T12:21:53;7.50;38.30
75819;DHT22;64453;51.944;9.796;2023-03-01T12:25:08;7.40;37.60
75819;DHT22;64453;51.944;9.796;2023-03-01T12:28:04;7.60;38.30
75819;DHT22;64453;51.944;9.796;2023-03-01T12:30:50;7.80;38.20
75819;DHT22;64453;51.944;9.796;2023-03-01T12:33:31;8.00;38.00
75819;DHT22;64453;51.944;9.796;2023-03-01T12:36:19;7.70;37.10
75819;DHT22;64453;51.944;9.796;2023-03-01T12:39:03;7.60;37.20
75819;DHT22;64453;51.944;9.796;2023-03-01T12:41:46;7.90;37.90
75819;DHT22;64453;51.944;9.796;2023-03-01T12:44:28;8.00;37.20
75819;DHT22;64453;51.944;9.796;2023-03-01T12:47:10;7.80;36.50
75819;DHT22;64453;51.944;9.796;2023-03-01T12:49:46;7.90;37.50
75819;DHT22;64453;51.944;9.796;2023-03-01T12:52:21;8.10;36.70
75819;DHT22;64453;51.944;9.796;2023-03-01T12:54:53;7.80;36.20
75819;DHT22;64453;51.944;9.796;2023-03-01T12:57:26;8.00;35.70
75819;DHT22;64453;51.944;9.796;2023-03-01T13:00:10;8.10;35.60
75819;DHT22;64453;51.944;9.796;2023-03-01T13:02:49;8.20;36.30
75819;DHT22;64453;51.944;9.796;2023-03-01T13:05:24;8.00;35.60
75819;DHT22;64453;51.944;9.796;2023-03-01T13:08:01;7.90;35.20
75819;DHT22;64453;51.944;9.796;2023-03-01T13:10:40;8.00;36.00
75819;DHT22;64453;51.944;9.796;2023-03-01T13:13:20;8.30;36.80
75819;DHT22;64453;51.944;9.796;2023-03-01T13:15:47;8.50;36.80
75819;DHT22;64453;51.944;9.796;2023-03-01T13:18:29;8.50;36.50
75819;DHT22;64453;51.944;9.796;2023-03-01T13:20:59;8.00;35.80
75819;DHT22;64453;51.944;9.796;2023-03-01T13:23:30;8.10;37.20
75819;DHT22;64453;51.944;9.796;2023-03-01T13:26:08;8.30;37.20
75819;DHT22;64453;51.944;9.796;2023-03-01T13:28:57;8.60;36.60
75819;DHT22;64453;51.944;9.796;2023-03-01T13:31:59;8.70;36.70
75819;DHT22;64453;51.944;9.796;2023-03-01T13:34:53;8.90;36.30
75819;DHT22;64453;51.944;9.796;2023-03-01T13:37:30;8.70;35.50
75819;DHT22;64453;51.944;9.796;2023-03-01T13:43:32;8.70;36.10
75819;DHT22;64453;51.944;9.796;2023-03-01T13:46:00;8.80;35.80
75819;DHT22;64453;51.944;9.796;2023-03-01T13:48:34;8.90;35.80
75819;DHT22;64453;51.944;9.796;2023-03-01T13:51:03;8.90;35.80
75819;DHT22;64453;51.944;9.796;2023-03-01T13:53:34;8.70;34.80
75819;DHT22;64453;51.944;9.796;2023-03-01T13:56:08;8.50;35.30
75819;DHT22;64453;51.944;9.796;2023-03-01T13:58:47;8.80;35.90
75819;DHT22;64453;51.944;9.796;2023-03-01T14:01:28;9.20;36.10
75819;DHT22;64453;51.944;9.796;2023-03-01T14:03:56;9.30;35.80
75819;DHT22;64453;51.944;9.796;2023-03-01T14:06:25;9.40;35.50
75819;DHT22;64453;51.944;9.796;2023-03-01T14:09:02;9.50;34.60
75819;DHT22;64453;51.944;9.796;2023-03-01T14:11:59;9.10;34.80
75819;DHT22;64453;51.944;9.796;2023-03-01T14:14:42;9.40;34.90
75819;DHT22;64453;51.944;9.796;2023-03-01T14:17:25;9.20;35.00
75819;DHT22;64453;51.944;9.796;2023-03-01T14:20:02;9.40;35.40
75819;DHT22;64453;51.944;9.796;2023-03-01T14:22:34;9.40;35.00
75819;DHT22;64453;51.944;9.796;2023-03-01T14:25:05;9.60;34.60
75819;DHT22;64453;51.944;9.796;2023-03-01T14:27:51;9.70;34.30
75819;DHT22;64453;51.944;9.796;2023-03-01T14:30:24;9.90;33.80
75819;DHT22;64453;51.944;9.796;2023-03-01T14:32:54;9.90;33.60
75819;DHT22;64453;51.944;9.796;2023-03-01T14:35:23;9.80;33.70
75819;DHT22;64453;51.944;9.796;2023-03-01T14:37:52;10.00;32.80
75819;DHT22;64453;51.944;9.796;2023-03-01T14:40:25;10.00;32.10
75819;DHT22;64453;51.944;9.796;2023-03-01T14:42:57;10.10;31.90
75819;DHT22;64453;51.944;9.796;2023-03-01T14:45:26;10.00;31.80
75819;DHT22;64453;51.944;9.796;2023-03-01T14:47:54;10.00;31.20
75819;DHT22;64453;51.944;9.796;2023-03-01T14:50:25;9.90;32.70
75819;DHT22;64453;51.944;9.796;2023-03-01T14:52:56;10.10;32.10
75819;DHT22;64453;51.944;9.796;2023-03-01T14:55:28;10.10;31.40
75819;DHT22;64453;51.944;9.796;2023-03-01T14:57:58;10.00;31.50
75819;DHT22;64453;51.944;9.796;2023-03-01T15:00:27;10.20;31.40
75819;DHT22;64453;51.944;9.796;2023-03-01T15:03:01;10.20;31.50
75819;DHT22;64453;51.944;9.796;2023-03-01T15:05:35;10.10;30.70
75819;DHT22;64453;51.944;9.796;2023-03-01T15:08:03;10.30;30.60
75819;DHT22;64453;51.944;9.796;2023-03-01T15:10:33;10.30;30.00
75819;DHT22;64453;51.944;9.796;2023-03-01T15:13:12;10.40;29.80
75819;DHT22;64453;51.944;9.796;2023-03-01T15:15:41;10.40;29.10
75819;DHT22;64453;51.944;9.796;2023-03-01T15:18:18;10.50;29.70
75819;DHT22;64453;51.944;9.796;2023-03-01T15:20:47;10.50;29.60
75819;DHT22;64453;51.944;9.796;2023-03-01T15:23:19;10.30;29.10
75819;DHT22;64453;51.944;9.796;2023-03-01T15:25:49;10.40;30.00
75819;DHT22;64453;51.944;9.796;2023-03-01T15:28:24;10.50;30.00
75819;DHT22;64453;51.944;9.796;2023-03-01T15:30:55;10.60;29.70
75819;DHT22;64453;51.944;9.796;2023-03-01T15:33:30;10.60;29.00
75819;DHT22;64453;51.944;9.796;2023-03-01T15:36:01;10.90;29.30
75819;DHT22;64453;51.944;9.796;2023-03-01T15:38:32;11.10;28.40
75819;DHT22;64453;51.944;9.796;2023-03-01T15:41:02;11.80;27.60
75819;DHT22;64453;51.944;9.796;2023-03-01T15:43:45;14.00;26.60
75819;DHT22;64453;51.944;9.796;2023-03-01T15:46:17;12.60;26.50
75819;DHT22;64453;51.944;9.796;2023-03-01T15:48:46;11.80;26.30
75819;DHT22;64453;51.944;9.796;2023-03-01T15:51:15;11.70;27.60
75819;DHT22;64453;51.944;9.796;2023-03-01T15:53:46;11.50;27.10
75819;DHT22;64453;51.944;9.796;2023-03-01T15:56:16;11.60;27.50
75819;DHT22;64453;51.944;9.796;2023-03-01T15:58:44;11.60;27.60
75819;DHT22;64453;51.944;9.796;2023-03-01T16:01:13;11.70;27.50
75819;DHT22;64453;51.944;9.796;2023-03-01T16:03:41;12.00;26.80
75819;DHT22;64453;51.944;9.796;2023-03-01T16:06:09;13.00;26.10
75819;DHT22;64453;51.944;9.796;2023-03-01T16:08:36;12.80;26.50
75819;DHT22;64453;51.944;9.796;2023-03-01T16:11:04;12.20;27.50
75819;DHT22;64453;51.944;9.796;2023-03-01T16:13:32;12.00;27.70
75819;DHT22;64453;51.944;9.796;2023-03-01T16:16:01;12.00;27.60
75819;DHT22;64453;51.944;9.796;2023-03-01T16:18:28;11.90;27.70
75819;DHT22;64453;51.944;9.796;2023-03-01T16:20:54;11.80;27.80